sensor_id;sensor_type;location;lat;lon;timestamp;temperature;humidity
5027;DHT22;2532;52.480;13.354;2022-12-29T00:01:33;10.00;95.50
5027;DHT22;2532;52.480;13.354;2022-12-29T00:04:01;10.00;95.50
5027;DHT22;2532;52.480;13.354;2022-12-29T00:06:28;10.00;95.50
5027;DHT22;2532;52.480;13.354;2022-12-29T00:08:55;10.10;95.50
5027;DHT22;2532;52.480;13.354;2022-12-29T00:11:23;10.10;95.50
5027;DHT22;2532;52.480;13.354;2022-12-29T00:13:51;10.00;95.50
5027;DHT22;2532;52.480;13.354;2022-12-29T00:16:37;10.00;95.50
5027;DHT22;2532;52.480;13.354;2022-12-29T00:19:05;10.00;95.40
5027;DHT22;2532;52.480;13.354;2022-12-29T00:21:52;10.00;95.40
5027;DHT22;2532;52.480;13.354;2022-12-29T00:24:36;10.00;95.40
5027;DHT22;2532;52.480;13.354;2022-12-29T00:27:20;10.00;95.40
5027;DHT22;2532;52.480;13.354;2022-12-29T00:30:09;10.00;95.40
5027;DHT22;2532;52.480;13.354;2022-12-29T00:32:55;10.00;95.30
5027;DHT22;2532;52.480;13.354;2022-12-29T00:35:44;10.00;95.20
5027;DHT22;2532;52.480;13.354;2022-12-29T00:38:12;10.00;95.10
5027;DHT22;2532;52.480;13.354;2022-12-29T00:40:57;10.10;95.10
5027;DHT22;2532;52.480;13.354;2022-12-29T00:43:41;10.10;95.10
5027;DHT22;2532;52.480;13.354;2022-12-29T00:46:27;10.10;95.20
5027;DHT22;2532;52.480;13.354;2022-12-29T00:48:56;10.10;95.00
5027;DHT22;2532;52.480;13.354;2022-12-29T00:51:41;10.10;95.10
5027;DHT22;2532;52.480;13.354;2022-12-29T00:54:08;10.20;95.20
5027;DHT22;2532;52.480;13.354;2022-12-29T00:56:35;10.20;95.10
5027;DHT22;2532;52.480;13.354;2022-12-29T00:59:03;10.10;95.00
5027;DHT22;2532;52.480;13.354;2022-12-29T01:01:30;10.10;95.10
5027;DHT22;2532;52.480;13.354;2022-12-29T01:03:59;10.10;95.20
5027;DHT22;2532;52.480;13.354;2022-12-29T01:06:26;10.20;95.30
5027;DHT22;2532;52.480;13.354;2022-12-29T01:08:53;10.20;95.20
5027;DHT22;2532;52.480;13.354;2022-12-29T01:11:34;10.20;95.20
5027;DHT22;2532;52.480;13.354;2022-12-29T01:14:01;10.10;95.20
5027;DHT22;2532;52.480;13.354;2022-12-29T01:16:28;10.10;95.10
5027;DHT22;2532;52.480;13.354;2022-12-29T01:18:55;10.10;95.20
5027;DHT22;2532;52.480;13.354;2022-12-29T01:21:24;10.20;95.10
5027;DHT22;2532;52.480;13.354;2022-12-29T01:23:51;10.20;95.10
5027;DHT22;2532;52.480;13.354;2022-12-29T01:26:18;10.20;95.10
5027;DHT22;2532;52.480;13.354;2022-12-29T01:28:45;10.20;95.10
5027;DHT22;2532;52.480;13.354;2022-12-29T01:31:14;10.20;94.90
5027;DHT22;2532;52.480;13.354;2022-12-29T01:33:42;10.20;94.90
5027;DHT22;2532;52.480;13.354;2022-12-29T01:36:10;10.30;94.80
5027;DHT22;2532;52.480;13.354;2022-12-29T01:38:43;10.30;94.80
5027;DHT22;2532;52.480;13.354;2022-12-29T01:41:12;10.40;94.90
5027;DHT22;2532;52.480;13.354;2022-12-29T01:43:41;10.30;94.70
5027;DHT22;2532;52.480;13.354;2022-12-29T01:46:19;10.30;94.70
5027;DHT22;2532;52.480;13.354;2022-12-29T01:48:51;10.30;94.90
5027;DHT22;2532;52.480;13.354;2022-12-29T01:51:20;10.30;94.90
5027;DHT22;2532;52.480;13.354;2022-12-29T01:53:50;10.30;95.00
5027;DHT22;2532;52.480;13.354;2022-12-29T01:56:19;10.30;95.00
5027;DHT22;2532;52.480;13.354;2022-12-29T01:58:48;10.30;95.10
5027;DHT22;2532;52.480;13.354;2022-12-29T02:01:18;10.30;95.20
5027;DHT22;2532;52.480;13.354;2022-12-29T02:03:46;10.30;95.20
5027;DHT22;2532;52.480;13.354;2022-12-29T02:06:17;10.30;95.20
5027;DHT22;2532;52.480;13.354;2022-12-29T02:08:47;10.30;95.10
5027;DHT22;2532;52.480;13.354;2022-12-29T02:11:17;10.30;95.10
5027;DHT22;2532;52.480;13.354;2022-12-29T02:13:44;10.30;95.00
5027;DHT22;2532;52.480;13.354;2022-12-29T02:16:20;10.30;95.10
5027;DHT22;2532;52.480;13.354;2022-12-29T02:18:55;10.30;95.00
5027;DHT22;2532;52.480;13.354;2022-12-29T02:21:45;10.40;94.80
5027;DHT22;2532;52.480;13.354;2022-12-29T02:24:36;10.30;94.70
5027;DHT22;2532;52.480;13.354;2022-12-29T02:27:28;10.40;94.60
5027;DHT22;2532;52.480;13.354;2022-12-29T02:30:14;10.40;94.50
5027;DHT22;2532;52.480;13.354;2022-12-29T02:32:51;10.40;94.40
5027;DHT22;2532;52.480;13.354;2022-12-29T02:35:25;10.40;94.20
5027;DHT22;2532;52.480;13.354;2022-12-29T02:38:02;10.40;94.00
5027;DHT22;2532;52.480;13.354;2022-12-29T02:40:37;10.50;94.00
5027;DHT22;2532;52.480;13.354;2022-12-29T02:43:13;10.50;93.90
5027;DHT22;2532;52.480;13.354;2022-12-29T02:45:47;10.50;93.90
5027;DHT22;2532;52.480;13.354;2022-12-29T02:48:20;10.50;93.80
5027;DHT22;2532;52.480;13.354;2022-12-29T02:50:54;10.60;93.60
5027;DHT22;2532;52.480;13.354;2022-12-29T02:53:25;10.60;93.50
5027;DHT22;2532;52.480;13.354;2022-12-29T02:56:07;10.60;93.50
5027;DHT22;2532;52.480;13.354;2022-12-29T02:58:33;10.60;93.50
5027;DHT22;2532;52.480;13.354;2022-12-29T03:01:13;10.60;93.40
5027;DHT22;2532;52.480;13.354;2022-12-29T03:03:48;10.70;93.40
5027;DHT22;2532;52.480;13.354;2022-12-29T03:06:30;10.70;93.40
5027;DHT22;2532;52.480;13.354;2022-12-29T03:09:03;10.80;93.30
5027;DHT22;2532;52.480;13.354;2022-12-29T03:11:42;10.80;93.30
5027;DHT22;2532;52.480;13.354;2022-12-29T03:14:33;10.80;93.20
5027;DHT22;2532;52.480;13.354;2022-12-29T03:17:25;10.90;93.20
5027;DHT22;2532;52.480;13.354;2022-12-29T03:20:02;10.90;93.10
5027;DHT22;2532;52.480;13.354;2022-12-29T03:22:34;10.90;93.00
5027;DHT22;2532;52.480;13.354;2022-12-29T03:25:06;10.90;93.00
5027;DHT22;2532;52.480;13.354;2022-12-29T03:27:41;10.90;93.00
5027;DHT22;2532;52.480;13.354;2022-12-29T03:30:09;11.00;93.10
5027;DHT22;2532;52.480;13.354;2022-12-29T03:32:40;11.00;93.10
5027;DHT22;2532;52.480;13.354;2022-12-29T03:35:13;11.00;93.00
5027;DHT22;2532;52.480;13.354;2022-12-29T03:37:44;11.00;93.00
5027;DHT22;2532;52.480;13.354;2022-12-29T03:40:12;11.10;93.00
5027;DHT22;2532;52.480;13.354;2022-12-29T03:42:39;11.10;92.90
5027;DHT22;2532;52.480;13.354;2022-12-29T03:45:07;11.10;92.90
5027;DHT22;2532;52.480;13.354;2022-12-29T03:47:35;11.20;92.90
5027;DHT22;2532;52.480;13.354;2022-12-29T03:50:02;11.20;92.90
5027;DHT22;2532;52.480;13.354;2022-12-29T03:52:31;11.20;92.90
5027;DHT22;2532;52.480;13.354;2022-12-29T03:54:58;11.20;92.90
5027;DHT22;2532;52.480;13.354;2022-12-29T03:57:24;11.30;92.90
5027;DHT22;2532;52.480;13.354;2022-12-29T03:59:51;11.30;92.90
5027;DHT22;2532;52.480;13.354;2022-12-29T04:02:18;11.30;93.00
5027;DHT22;2532;52.480;13.354;2022-12-29T04:04:45;11.20;92.90
5027;DHT22;2532;52.480;13.354;2022-12-29T04:07:12;11.30;92.90
5027;DHT22;2532;52.480;13.354;2022-12-29T04:09:40;11.30;92.90
5027;DHT22;2532;52.480;13.354;2022-12-29T04:12:07;11.30;92.90
5027;DHT22;2532;52.480;13.354;2022-12-29T04:14:34;11.40;93.00
5027;DHT22;2532;52.480;13.354;2022-12-29T04:17:01;11.40;93.00
5027;DHT22;2532;52.480;13.354;2022-12-29T04:19:30;11.40;93.00
5027;DHT22;2532;52.480;13.354;2022-12-29T04:21:57;11.40;93.00
5027;DHT22;2532;52.480;13.354;2022-12-29T04:24:24;11.40;92.90
5027;DHT22;2532;52.480;13.354;2022-12-29T04:26:52;11.40;92.90
5027;DHT22;2532;52.480;13.354;2022-12-29T04:29:19;11.40;92.90
5027;DHT22;2532;52.480;13.354;2022-12-29T04:31:46;11.40;92.90
5027;DHT22;2532;52.480;13.354;2022-12-29T04:34:13;11.40;92.80
5027;DHT22;2532;52.480;13.354;2022-12-29T04:36:40;11.50;92.80
5027;DHT22;2532;52.480;13.354;2022-12-29T04:39:07;11.40;92.80
5027;DHT22;2532;52.480;13.354;2022-12-29T04:41:34;11.40;92.70
5027;DHT22;2532;52.480;13.354;2022-12-29T04:44:03;11.50;92.80
5027;DHT22;2532;52.480;13.354;2022-12-29T04:46:30;11.50;92.80
5027;DHT22;2532;52.480;13.354;2022-12-29T04:48:56;11.50;92.80
5027;DHT22;2532;52.480;13.354;2022-12-29T04:51:23;11.50;92.80
5027;DHT22;2532;52.480;13.354;2022-12-29T04:53:50;11.60;92.90
5027;DHT22;2532;52.480;13.354;2022-12-29T04:56:17;11.50;92.80
5027;DHT22;2532;52.480;13.354;2022-12-29T04:58:44;11.50;92.80
5027;DHT22;2532;52.480;13.354;2022-12-29T05:01:12;11.50;92.80
5027;DHT22;2532;52.480;13.354;2022-12-29T05:03:39;11.50;92.90
5027;DHT22;2532;52.480;13.354;2022-12-29T05:06:06;11.50;92.90
5027;DHT22;2532;52.480;13.354;2022-12-29T05:08:33;11.50;92.90
5027;DHT22;2532;52.480;13.354;2022-12-29T05:11:00;11.50;92.90
5027;DHT22;2532;52.480;13.354;2022-12-29T05:13:27;11.60;93.00
5027;DHT22;2532;52.480;13.354;2022-12-29T05:15:54;11.60;93.00
5027;DHT22;2532;52.480;13.354;2022-12-29T05:18:22;11.60;93.00
5027;DHT22;2532;52.480;13.354;2022-12-29T05:20:49;11.60;93.00
5027;DHT22;2532;52.480;13.354;2022-12-29T05:23:16;11.60;93.00
5027;DHT22;2532;52.480;13.354;2022-12-29T05:25:43;11.60;93.10
5027;DHT22;2532;52.480;13.354;2022-12-29T05:28:11;11.60;93.10
5027;DHT22;2532;52.480;13.354;2022-12-29T05:30:38;11.60;93.10
5027;DHT22;2532;52.480;13.354;2022-12-29T05:33:05;11.60;93.50
5027;DHT22;2532;52.480;13.354;2022-12-29T05:35:34;11.70;93.20
5027;DHT22;2532;52.480;13.354;2022-12-29T05:38:00;11.70;93.20
5027;DHT22;2532;52.480;13.354;2022-12-29T05:40:27;11.70;93.20
5027;DHT22;2532;52.480;13.354;2022-12-29T05:42:54;11.70;93.20
5027;DHT22;2532;52.480;13.354;2022-12-29T05:45:21;11.80;93.20
5027;DHT22;2532;52.480;13.354;2022-12-29T05:47:48;11.80;93.30
5027;DHT22;2532;52.480;13.354;2022-12-29T05:50:15;11.80;93.30
5027;DHT22;2532;52.480;13.354;2022-12-29T05:52:43;11.80;93.20
5027;DHT22;2532;52.480;13.354;2022-12-29T05:55:10;11.80;93.20
5027;DHT22;2532;52.480;13.354;2022-12-29T05:57:37;11.90;93.20
5027;DHT22;2532;52.480;13.354;2022-12-29T06:00:06;11.90;93.20
5027;DHT22;2532;52.480;13.354;2022-12-29T06:02:33;12.00;93.30
5027;DHT22;2532;52.480;13.354;2022-12-29T06:05:00;12.00;93.20
5027;DHT22;2532;52.480;13.354;2022-12-29T06:07:27;12.00;93.20
5027;DHT22;2532;52.480;13.354;2022-12-29T06:09:55;12.00;93.20
5027;DHT22;2532;52.480;13.354;2022-12-29T06:12:22;12.00;93.20
5027;DHT22;2532;52.480;13.354;2022-12-29T06:14:49;12.10;93.30
5027;DHT22;2532;52.480;13.354;2022-12-29T06:17:16;12.10;93.30
5027;DHT22;2532;52.480;13.354;2022-12-29T06:19:42;12.10;93.20
5027;DHT22;2532;52.480;13.354;2022-12-29T06:22:09;12.20;93.20
5027;DHT22;2532;52.480;13.354;2022-12-29T06:24:37;12.20;93.20
5027;DHT22;2532;52.480;13.354;2022-12-29T06:27:06;12.20;93.20
5027;DHT22;2532;52.480;13.354;2022-12-29T06:29:33;12.20;93.20
5027;DHT22;2532;52.480;13.354;2022-12-29T06:32:01;12.20;93.20
5027;DHT22;2532;52.480;13.354;2022-12-29T06:34:28;12.20;93.20
5027;DHT22;2532;52.480;13.354;2022-12-29T06:36:55;12.20;93.10
5027;DHT22;2532;52.480;13.354;2022-12-29T06:39:22;12.30;93.20
5027;DHT22;2532;52.480;13.354;2022-12-29T06:41:52;12.30;93.20
5027;DHT22;2532;52.480;13.354;2022-12-29T06:44:20;12.30;93.10
5027;DHT22;2532;52.480;13.354;2022-12-29T06:46:47;12.30;93.10
5027;DHT22;2532;52.480;13.354;2022-12-29T06:49:14;12.30;93.10
5027;DHT22;2532;52.480;13.354;2022-12-29T06:51:41;12.40;93.10
5027;DHT22;2532;52.480;13.354;2022-12-29T06:54:08;12.40;93.20
5027;DHT22;2532;52.480;13.354;2022-12-29T06:56:35;12.40;93.20
5027;DHT22;2532;52.480;13.354;2022-12-29T06:59:01;12.40;93.10
5027;DHT22;2532;52.480;13.354;2022-12-29T07:01:30;12.40;93.10
5027;DHT22;2532;52.480;13.354;2022-12-29T07:03:57;12.30;93.10
5027;DHT22;2532;52.480;13.354;2022-12-29T07:06:24;12.30;93.10
5027;DHT22;2532;52.480;13.354;2022-12-29T07:08:50;12.30;93.10
5027;DHT22;2532;52.480;13.354;2022-12-29T07:11:20;12.30;93.10
5027;DHT22;2532;52.480;13.354;2022-12-29T07:13:47;12.30;93.10
5027;DHT22;2532;52.480;13.354;2022-12-29T07:16:14;12.20;93.20
5027;DHT22;2532;52.480;13.354;2022-12-29T07:18:42;12.20;93.20
5027;DHT22;2532;52.480;13.354;2022-12-29T07:21:09;12.20;93.30
5027;DHT22;2532;52.480;13.354;2022-12-29T07:23:37;12.10;93.30
5027;DHT22;2532;52.480;13.354;2022-12-29T07:26:06;12.10;93.30
5027;DHT22;2532;52.480;13.354;2022-12-29T07:28:34;12.10;93.40
5027;DHT22;2532;52.480;13.354;2022-12-29T07:31:01;12.20;93.40
5027;DHT22;2532;52.480;13.354;2022-12-29T07:33:29;12.10;93.40
5027;DHT22;2532;52.480;13.354;2022-12-29T07:35:57;12.10;93.40
5027;DHT22;2532;52.480;13.354;2022-12-29T07:38:24;12.10;93.50
5027;DHT22;2532;52.480;13.354;2022-12-29T07:40:51;12.10;93.50
5027;DHT22;2532;52.480;13.354;2022-12-29T07:43:18;12.10;93.50
5027;DHT22;2532;52.480;13.354;2022-12-29T07:45:45;12.10;93.60
5027;DHT22;2532;52.480;13.354;2022-12-29T07:48:11;12.10;94.00
5027;DHT22;2532;52.480;13.354;2022-12-29T07:50:38;12.10;93.70
5027;DHT22;2532;52.480;13.354;2022-12-29T07:53:06;12.10;93.70
5027;DHT22;2532;52.480;13.354;2022-12-29T07:55:33;12.10;93.70
5027;DHT22;2532;52.480;13.354;2022-12-29T07:58:00;12.10;93.60
5027;DHT22;2532;52.480;13.354;2022-12-29T08:00:27;12.10;93.70
5027;DHT22;2532;52.480;13.354;2022-12-29T08:02:54;12.20;93.70
5027;DHT22;2532;52.480;13.354;2022-12-29T08:05:21;12.20;93.70
5027;DHT22;2532;52.480;13.354;2022-12-29T08:07:48;12.20;93.70
5027;DHT22;2532;52.480;13.354;2022-12-29T08:10:17;12.20;93.70
5027;DHT22;2532;52.480;13.354;2022-12-29T08:12:44;12.20;93.60
5027;DHT22;2532;52.480;13.354;2022-12-29T08:15:11;12.30;93.70
5027;DHT22;2532;52.480;13.354;2022-12-29T08:17:38;12.30;93.60
5027;DHT22;2532;52.480;13.354;2022-12-29T08:20:06;12.40;93.50
5027;DHT22;2532;52.480;13.354;2022-12-29T08:22:33;12.40;93.50
5027;DHT22;2532;52.480;13.354;2022-12-29T08:25:00;12.40;93.50
5027;DHT22;2532;52.480;13.354;2022-12-29T08:27:29;12.40;93.40
5027;DHT22;2532;52.480;13.354;2022-12-29T08:29:56;12.40;93.40
5027;DHT22;2532;52.480;13.354;2022-12-29T08:32:23;12.40;93.40
5027;DHT22;2532;52.480;13.354;2022-12-29T08:34:49;12.40;93.40
5027;DHT22;2532;52.480;13.354;2022-12-29T08:37:16;12.40;93.40
5027;DHT22;2532;52.480;13.354;2022-12-29T08:39:43;12.40;93.40
5027;DHT22;2532;52.480;13.354;2022-12-29T08:42:10;12.40;93.40
5027;DHT22;2532;52.480;13.354;2022-12-29T08:44:38;12.50;93.40
5027;DHT22;2532;52.480;13.354;2022-12-29T08:47:06;12.50;93.40
5027;DHT22;2532;52.480;13.354;2022-12-29T08:49:33;12.50;93.40
5027;DHT22;2532;52.480;13.354;2022-12-29T08:52:00;12.50;93.40
5027;DHT22;2532;52.480;13.354;2022-12-29T08:54:27;12.50;93.40
5027;DHT22;2532;52.480;13.354;2022-12-29T08:56:54;12.50;93.40
5027;DHT22;2532;52.480;13.354;2022-12-29T08:59:21;12.50;93.30
5027;DHT22;2532;52.480;13.354;2022-12-29T09:01:49;12.60;93.30
5027;DHT22;2532;52.480;13.354;2022-12-29T09:04:16;12.60;93.30
5027;DHT22;2532;52.480;13.354;2022-12-29T09:06:44;12.60;93.30
5027;DHT22;2532;52.480;13.354;2022-12-29T09:09:11;12.60;93.20
5027;DHT22;2532;52.480;13.354;2022-12-29T09:11:38;12.60;93.20
5027;DHT22;2532;52.480;13.354;2022-12-29T09:14:05;12.60;93.30
5027;DHT22;2532;52.480;13.354;2022-12-29T09:16:32;12.60;93.30
5027;DHT22;2532;52.480;13.354;2022-12-29T09:19:00;12.60;93.30
5027;DHT22;2532;52.480;13.354;2022-12-29T09:21:27;12.60;93.20
5027;DHT22;2532;52.480;13.354;2022-12-29T09:23:55;12.70;93.30
5027;DHT22;2532;52.480;13.354;2022-12-29T09:26:22;12.60;93.30
5027;DHT22;2532;52.480;13.354;2022-12-29T09:28:49;12.70;93.30
5027;DHT22;2532;52.480;13.354;2022-12-29T09:31:16;12.70;93.30
5027;DHT22;2532;52.480;13.354;2022-12-29T09:33:43;12.80;93.30
5027;DHT22;2532;52.480;13.354;2022-12-29T09:36:11;12.80;93.20
5027;DHT22;2532;52.480;13.354;2022-12-29T09:38:38;12.80;93.20
5027;DHT22;2532;52.480;13.354;2022-12-29T09:41:11;12.90;93.20
5027;DHT22;2532;52.480;13.354;2022-12-29T09:43:54;12.90;93.10
5027;DHT22;2532;52.480;13.354;2022-12-29T09:46:27;13.00;93.10
5027;DHT22;2532;52.480;13.354;2022-12-29T09:49:05;13.00;93.10
5027;DHT22;2532;52.480;13.354;2022-12-29T09:51:36;13.00;93.10
5027;DHT22;2532;52.480;13.354;2022-12-29T09:54:23;13.00;93.10
5027;DHT22;2532;52.480;13.354;2022-12-29T09:56:52;13.00;93.10
5027;DHT22;2532;52.480;13.354;2022-12-29T09:59:20;13.00;93.10
5027;DHT22;2532;52.480;13.354;2022-12-29T10:01:56;13.10;93.10
5027;DHT22;2532;52.480;13.354;2022-12-29T10:04:26;13.10;93.10
5027;DHT22;2532;52.480;13.354;2022-12-29T10:06:58;13.20;93.10
5027;DHT22;2532;52.480;13.354;2022-12-29T10:09:33;13.20;93.10
5027;DHT22;2532;52.480;13.354;2022-12-29T10:12:11;13.20;93.00
5027;DHT22;2532;52.480;13.354;2022-12-29T10:14:56;13.20;93.00
5027;DHT22;2532;52.480;13.354;2022-12-29T10:17:32;13.30;93.10
5027;DHT22;2532;52.480;13.354;2022-12-29T10:20:18;13.30;93.00
5027;DHT22;2532;52.480;13.354;2022-12-29T10:23:12;13.30;93.40
5027;DHT22;2532;52.480;13.354;2022-12-29T10:25:42;13.30;93.10
5027;DHT22;2532;52.480;13.354;2022-12-29T10:28:17;13.30;93.10
5027;DHT22;2532;52.480;13.354;2022-12-29T10:30:48;13.40;93.10
5027;DHT22;2532;52.480;13.354;2022-12-29T10:33:18;13.40;93.10
5027;DHT22;2532;52.480;13.354;2022-12-29T10:35:47;13.50;93.10
5027;DHT22;2532;52.480;13.354;2022-12-29T10:38:22;13.50;93.00
5027;DHT22;2532;52.480;13.354;2022-12-29T10:40:54;13.60;93.00
5027;DHT22;2532;52.480;13.354;2022-12-29T10:43:26;13.60;93.00
5027;DHT22;2532;52.480;13.354;2022-12-29T10:45:56;13.70;92.90
5027;DHT22;2532;52.480;13.354;2022-12-29T10:48:26;13.70;92.80
5027;DHT22;2532;52.480;13.354;2022-12-29T10:50:57;13.70;92.80
5027;DHT22;2532;52.480;13.354;2022-12-29T10:53:29;13.70;92.80
5027;DHT22;2532;52.480;13.354;2022-12-29T10:55:59;13.70;92.80
5027;DHT22;2532;52.480;13.354;2022-12-29T10:58:28;13.70;92.80
5027;DHT22;2532;52.480;13.354;2022-12-29T11:00:57;13.80;92.80
5027;DHT22;2532;52.480;13.354;2022-12-29T11:03:50;13.80;92.70
5027;DHT22;2532;52.480;13.354;2022-12-29T11:06:26;13.80;92.70
5027;DHT22;2532;52.480;13.354;2022-12-29T11:08:57;13.80;92.70
5027;DHT22;2532;52.480;13.354;2022-12-29T11:11:26;13.80;92.60
5027;DHT22;2532;52.480;13.354;2022-12-29T11:13:58;13.90;92.60
5027;DHT22;2532;52.480;13.354;2022-12-29T11:16:30;13.90;92.60
5027;DHT22;2532;52.480;13.354;2022-12-29T11:18:58;13.90;92.60
5027;DHT22;2532;52.480;13.354;2022-12-29T11:21:30;13.90;92.60
5027;DHT22;2532;52.480;13.354;2022-12-29T11:24:00;13.90;92.70
5027;DHT22;2532;52.480;13.354;2022-12-29T11:26:28;13.90;92.90
5027;DHT22;2532;52.480;13.354;2022-12-29T11:29:17;13.90;92.90
5027;DHT22;2532;52.480;13.354;2022-12-29T11:31:48;13.90;93.00
5027;DHT22;2532;52.480;13.354;2022-12-29T11:34:20;13.90;93.10
5027;DHT22;2532;52.480;13.354;2022-12-29T11:36:48;13.80;93.20
5027;DHT22;2532;52.480;13.354;2022-12-29T11:39:29;13.80;93.50
5027;DHT22;2532;52.480;13.354;2022-12-29T11:41:57;13.80;93.80
5027;DHT22;2532;52.480;13.354;2022-12-29T11:44:25;13.70;94.10
5027;DHT22;2532;52.480;13.354;2022-12-29T11:46:54;13.70;94.30
5027;DHT22;2532;52.480;13.354;2022-12-29T11:49:23;13.70;94.40
5027;DHT22;2532;52.480;13.354;2022-12-29T11:51:52;13.60;94.30
5027;DHT22;2532;52.480;13.354;2022-12-29T11:54:25;13.60;94.30
5027;DHT22;2532;52.480;13.354;2022-12-29T11:56:54;13.60;94.40
5027;DHT22;2532;52.480;13.354;2022-12-29T11:59:25;13.50;94.60
5027;DHT22;2532;52.480;13.354;2022-12-29T12:02:10;13.50;95.10
5027;DHT22;2532;52.480;13.354;2022-12-29T12:04:38;13.40;94.80
5027;DHT22;2532;52.480;13.354;2022-12-29T12:07:12;13.40;95.10
5027;DHT22;2532;52.480;13.354;2022-12-29T12:09:43;13.30;95.30
5027;DHT22;2532;52.480;13.354;2022-12-29T12:12:21;13.20;95.80
5027;DHT22;2532;52.480;13.354;2022-12-29T12:14:53;13.00;96.00
5027;DHT22;2532;52.480;13.354;2022-12-29T12:17:28;13.00;96.20
5027;DHT22;2532;52.480;13.354;2022-12-29T12:20:09;12.90;96.30
5027;DHT22;2532;52.480;13.354;2022-12-29T12:22:45;12.80;96.40
5027;DHT22;2532;52.480;13.354;2022-12-29T12:25:18;12.80;96.50
5027;DHT22;2532;52.480;13.354;2022-12-29T12:27:52;12.70;96.60
5027;DHT22;2532;52.480;13.354;2022-12-29T12:30:24;12.70;96.70
5027;DHT22;2532;52.480;13.354;2022-12-29T12:32:56;12.70;96.80
5027;DHT22;2532;52.480;13.354;2022-12-29T12:35:32;12.60;96.90
5027;DHT22;2532;52.480;13.354;2022-12-29T12:38:12;12.70;97.10
5027;DHT22;2532;52.480;13.354;2022-12-29T12:41:09;12.60;97.10
5027;DHT22;2532;52.480;13.354;2022-12-29T12:43:43;12.60;97.10
5027;DHT22;2532;52.480;13.354;2022-12-29T12:46:37;12.60;96.90
5027;DHT22;2532;52.480;13.354;2022-12-29T12:49:27;12.60;96.80
5027;DHT22;2532;52.480;13.354;2022-12-29T12:52:05;12.60;96.80
5027;DHT22;2532;52.480;13.354;2022-12-29T12:54:45;12.50;96.70
5027;DHT22;2532;52.480;13.354;2022-12-29T12:57:25;12.60;97.00
5027;DHT22;2532;52.480;13.354;2022-12-29T13:00:01;12.60;96.80
5027;DHT22;2532;52.480;13.354;2022-12-29T13:02:43;12.50;96.60
5027;DHT22;2532;52.480;13.354;2022-12-29T13:08:36;12.50;96.80
5027;DHT22;2532;52.480;13.354;2022-12-29T13:11:16;12.40;97.10
5027;DHT22;2532;52.480;13.354;2022-12-29T13:16:41;12.40;97.10
5027;DHT22;2532;52.480;13.354;2022-12-29T13:19:15;12.40;97.20
5027;DHT22;2532;52.480;13.354;2022-12-29T13:21:53;12.40;97.20
5027;DHT22;2532;52.480;13.354;2022-12-29T13:24:26;12.50;97.30
5027;DHT22;2532;52.480;13.354;2022-12-29T13:27:02;12.50;97.20
5027;DHT22;2532;52.480;13.354;2022-12-29T13:29:36;12.50;97.20
5027;DHT22;2532;52.480;13.354;2022-12-29T13:32:18;12.50;97.20
5027;DHT22;2532;52.480;13.354;2022-12-29T13:34:56;12.40;97.10
5027;DHT22;2532;52.480;13.354;2022-12-29T13:37:31;12.50;97.20
5027;DHT22;2532;52.480;13.354;2022-12-29T13:40:03;12.40;97.20
5027;DHT22;2532;52.480;13.354;2022-12-29T13:42:31;12.50;97.30
5027;DHT22;2532;52.480;13.354;2022-12-29T13:45:02;12.40;97.20
5027;DHT22;2532;52.480;13.354;2022-12-29T13:47:33;12.50;97.30
5027;DHT22;2532;52.480;13.354;2022-12-29T13:50:08;12.50;97.40
5027;DHT22;2532;52.480;13.354;2022-12-29T13:52:44;12.50;97.30
5027;DHT22;2532;52.480;13.354;2022-12-29T13:55:25;12.50;97.30
5027;DHT22;2532;52.480;13.354;2022-12-29T13:57:59;12.60;97.40
5027;DHT22;2532;52.480;13.354;2022-12-29T14:00:35;12.60;97.40
5027;DHT22;2532;52.480;13.354;2022-12-29T14:03:20;12.60;97.40
5027;DHT22;2532;52.480;13.354;2022-12-29T14:06:05;12.60;97.30
5027;DHT22;2532;52.480;13.354;2022-12-29T14:08:38;12.60;97.30
5027;DHT22;2532;52.480;13.354;2022-12-29T14:11:07;12.60;97.30
5027;DHT22;2532;52.480;13.354;2022-12-29T14:13:38;12.70;97.30
5027;DHT22;2532;52.480;13.354;2022-12-29T14:16:08;12.60;97.30
5027;DHT22;2532;52.480;13.354;2022-12-29T14:18:42;12.60;97.30
5027;DHT22;2532;52.480;13.354;2022-12-29T14:21:18;12.60;97.30
5027;DHT22;2532;52.480;13.354;2022-12-29T14:23:49;12.60;97.30
5027;DHT22;2532;52.480;13.354;2022-12-29T14:26:34;12.60;97.30
5027;DHT22;2532;52.480;13.354;2022-12-29T14:29:43;12.60;97.30
5027;DHT22;2532;52.480;13.354;2022-12-29T14:32:38;12.60;97.30
5027;DHT22;2532;52.480;13.354;2022-12-29T14:35:41;12.60;97.30
5027;DHT22;2532;52.480;13.354;2022-12-29T14:38:19;12.50;97.20
5027;DHT22;2532;52.480;13.354;2022-12-29T14:40:48;12.50;97.20
5027;DHT22;2532;52.480;13.354;2022-12-29T14:43:21;12.50;97.20
5027;DHT22;2532;52.480;13.354;2022-12-29T14:45:55;12.50;97.30
5027;DHT22;2532;52.480;13.354;2022-12-29T14:48:35;12.50;97.30
5027;DHT22;2532;52.480;13.354;2022-12-29T14:51:18;12.50;97.30
5027;DHT22;2532;52.480;13.354;2022-12-29T14:53:48;12.50;97.20
5027;DHT22;2532;52.480;13.354;2022-12-29T14:56:17;12.50;97.20
5027;DHT22;2532;52.480;13.354;2022-12-29T14:58:50;12.50;97.20
5027;DHT22;2532;52.480;13.354;2022-12-29T15:01:35;12.50;97.20
5027;DHT22;2532;52.480;13.354;2022-12-29T15:04:14;12.50;97.20
5027;DHT22;2532;52.480;13.354;2022-12-29T15:06:42;12.50;97.10
5027;DHT22;2532;52.480;13.354;2022-12-29T15:09:22;12.50;97.10
5027;DHT22;2532;52.480;13.354;2022-12-29T15:11:53;12.50;97.10
5027;DHT22;2532;52.480;13.354;2022-12-29T15:14:38;12.50;97.10
5027;DHT22;2532;52.480;13.354;2022-12-29T15:17:22;12.40;97.00
5027;DHT22;2532;52.480;13.354;2022-12-29T15:19:51;12.50;97.10
5027;DHT22;2532;52.480;13.354;2022-12-29T15:22:18;12.40;97.10
5027;DHT22;2532;52.480;13.354;2022-12-29T15:24:46;12.40;97.00
5027;DHT22;2532;52.480;13.354;2022-12-29T15:27:15;12.40;97.00
5027;DHT22;2532;52.480;13.354;2022-12-29T15:29:44;12.40;97.00
5027;DHT22;2532;52.480;13.354;2022-12-29T15:32:22;12.30;96.90
5027;DHT22;2532;52.480;13.354;2022-12-29T15:34:52;12.30;96.90
5027;DHT22;2532;52.480;13.354;2022-12-29T15:37:22;12.30;97.00
5027;DHT22;2532;52.480;13.354;2022-12-29T15:39:51;12.30;97.00
5027;DHT22;2532;52.480;13.354;2022-12-29T15:42:43;12.30;97.00
5027;DHT22;2532;52.480;13.354;2022-12-29T15:45:13;12.30;97.00
5027;DHT22;2532;52.480;13.354;2022-12-29T15:47:43;12.30;97.10
5027;DHT22;2532;52.480;13.354;2022-12-29T15:50:21;12.30;97.10
5027;DHT22;2532;52.480;13.354;2022-12-29T15:52:49;12.20;97.10
5027;DHT22;2532;52.480;13.354;2022-12-29T15:55:24;12.20;97.10
5027;DHT22;2532;52.480;13.354;2022-12-29T15:57:56;12.20;97.10
5027;DHT22;2532;52.480;13.354;2022-12-29T16:00:25;12.20;97.10
5027;DHT22;2532;52.480;13.354;2022-12-29T16:02:54;12.10;97.10
5027;DHT22;2532;52.480;13.354;2022-12-29T16:05:24;12.10;97.10
5027;DHT22;2532;52.480;13.354;2022-12-29T16:07:56;12.10;97.10
5027;DHT22;2532;52.480;13.354;2022-12-29T16:10:29;12.10;97.10
5027;DHT22;2532;52.480;13.354;2022-12-29T16:13:04;12.10;97.00
5027;DHT22;2532;52.480;13.354;2022-12-29T16:15:32;12.10;97.00
5027;DHT22;2532;52.480;13.354;2022-12-29T16:17:59;12.00;96.80
5027;DHT22;2532;52.480;13.354;2022-12-29T16:20:37;12.00;96.80